createdAt,value
2023-01-28T00:00:08.404Z,4.05
2023-01-28T00:00:21.364Z,4.07
2023-01-28T00:00:34.510Z,4.07
2023-01-28T00:00:47.373Z,4.05
2023-01-28T00:01:05.639Z,4.00
2023-01-28T00:01:18.284Z,4.02
2023-01-28T00:01:30.938Z,4.01
2023-01-28T00:01:43.783Z,4.06
2023-01-28T00:01:56.647Z,4.06
2023-01-28T00:02:09.530Z,4.03
2023-01-28T00:02:22.465Z,4.03
2023-01-28T00:02:35.768Z,4.10
2023-01-28T00:02:49.901Z,4.11
2023-01-28T00:03:02.789Z,4.13
2023-01-28T00:03:16.080Z,4.09
2023-01-28T00:03:28.922Z,4.10
2023-01-28T00:03:42.051Z,4.04
2023-01-28T00:03:54.944Z,4.01
2023-01-28T00:04:10.226Z,3.96
2023-01-28T00:04:23.090Z,3.96
2023-01-28T00:04:35.958Z,3.96
2023-01-28T00:04:49.001Z,3.94
2023-01-28T00:05:01.930Z,3.97
2023-01-28T00:05:15.312Z,4.02
2023-01-28T00:05:29.953Z,4.02
2023-01-28T00:05:43.245Z,4.00
2023-01-28T00:06:02.850Z,4.06
2023-01-28T00:06:15.562Z,4.13
2023-01-28T00:06:28.254Z,4.12
2023-01-28T00:06:41.330Z,4.12
2023-01-28T00:06:54.241Z,4.10
2023-01-28T00:07:07.101Z,4.09
2023-01-28T00:07:20.440Z,4.07
2023-01-28T00:07:33.288Z,4.18
2023-01-28T00:07:48.803Z,4.14
2023-01-28T00:08:01.629Z,4.15
2023-01-28T00:08:14.908Z,4.15
2023-01-28T00:08:27.770Z,4.14
2023-01-28T00:08:41.012Z,4.07
2023-01-28T00:08:55.870Z,4.05
2023-01-28T00:09:08.787Z,4.04
2023-01-28T00:09:21.619Z,4.05
2023-01-28T00:09:34.434Z,4.04
2023-01-28T00:09:47.256Z,4.01
2023-01-28T00:10:00.094Z,4.05
2023-01-28T00:10:13.023Z,4.01
2023-01-28T00:10:25.878Z,4.03
2023-01-28T00:10:39.798Z,4.05
2023-01-28T00:10:52.697Z,4.04
2023-01-28T00:11:06.432Z,4.04
2023-01-28T00:11:19.318Z,4.00
2023-01-28T00:11:32.138Z,3.99
2023-01-28T00:11:45.053Z,3.99
2023-01-28T00:11:59.031Z,4.06
2023-01-28T00:12:11.873Z,4.06
2023-01-28T00:12:24.757Z,4.00
2023-01-28T00:12:37.620Z,4.11
2023-01-28T00:12:50.999Z,4.15
2023-01-28T00:13:03.850Z,4.08
2023-01-28T00:13:16.693Z,4.02
2023-01-28T00:13:30.092Z,4.05
2023-01-28T00:13:43.352Z,4.05
2023-01-28T00:13:56.815Z,4.02
2023-01-28T00:14:11.577Z,4.04
2023-01-28T00:14:24.481Z,4.05
2023-01-28T00:14:37.941Z,4.08
2023-01-28T00:14:51.201Z,4.08
2023-01-28T00:15:04.362Z,4.05
2023-01-28T00:15:17.219Z,4.05
2023-01-28T00:15:30.089Z,4.08
2023-01-28T00:15:42.955Z,4.04
2023-01-28T00:15:59.595Z,4.05
2023-01-28T00:16:12.496Z,4.00
2023-01-28T00:16:27.340Z,4.02
2023-01-28T00:16:40.263Z,4.06
2023-01-28T00:16:53.110Z,4.05
2023-01-28T00:17:06.316Z,4.01
2023-01-28T00:17:19.165Z,4.04
2023-01-28T00:17:32.079Z,4.02
2023-01-28T00:17:44.957Z,4.00
2023-01-28T00:17:57.849Z,4.03
2023-01-28T00:18:10.697Z,4.04
2023-01-28T00:18:23.754Z,4.01
2023-01-28T00:18:36.726Z,3.99
2023-01-28T00:18:49.583Z,4.03
2023-01-28T00:19:02.423Z,4.04
2023-01-28T00:19:15.542Z,4.01
2023-01-28T00:19:28.385Z,4.00
2023-01-28T00:19:41.480Z,3.98
2023-01-28T00:19:54.362Z,3.99
2023-01-28T00:20:07.839Z,3.98
2023-01-28T00:20:20.682Z,3.98
2023-01-28T00:20:35.337Z,4.00
2023-01-28T00:21:11.497Z,3.99
2023-01-28T00:21:24.192Z,4.01
2023-01-28T00:21:36.829Z,3.97
2023-01-28T00:21:49.721Z,3.94
2023-01-28T00:22:02.680Z,3.95
2023-01-28T00:22:15.494Z,3.98
2023-01-28T00:22:28.641Z,4.04
2023-01-28T00:22:41.489Z,4.05
2023-01-28T00:22:54.334Z,4.06
2023-01-28T00:23:07.470Z,4.04
2023-01-28T00:23:20.313Z,4.05
2023-01-28T00:23:34.837Z,4.07
2023-01-28T00:23:50.644Z,4.10
2023-01-28T00:24:03.689Z,4.10
2023-01-28T00:24:16.570Z,4.12
2023-01-28T00:24:29.799Z,4.15
2023-01-28T00:24:46.142Z,4.14
2023-01-28T00:24:59.338Z,4.14
2023-01-28T00:25:12.409Z,4.10
2023-01-28T00:25:25.352Z,4.19
2023-01-28T00:25:38.173Z,4.20
2023-01-28T00:25:51.042Z,4.20
2023-01-28T00:26:08.488Z,4.16
2023-01-28T00:26:21.638Z,4.12
2023-01-28T00:26:34.483Z,4.12
2023-01-28T00:26:47.336Z,4.09
2023-01-28T00:27:00.165Z,4.09
2023-01-28T00:27:12.984Z,4.07
2023-01-28T00:27:25.857Z,4.09
2023-01-28T00:27:38.707Z,4.06
2023-01-28T00:27:51.715Z,4.03
2023-01-28T00:28:04.571Z,4.03
2023-01-28T00:28:17.397Z,4.06
2023-01-28T00:28:30.340Z,4.02
2023-01-28T00:28:43.324Z,4.04
2023-01-28T00:28:56.180Z,4.11
2023-01-28T00:29:09.020Z,4.12
2023-01-28T00:29:21.853Z,4.19
2023-01-28T00:29:34.674Z,4.15
2023-01-28T00:29:47.978Z,4.06
2023-01-28T00:30:00.852Z,4.05
2023-01-28T00:30:14.107Z,4.07
2023-01-28T00:30:26.974Z,4.05
2023-01-28T00:30:39.822Z,4.10
2023-01-28T00:30:52.697Z,4.09
2023-01-28T00:31:10.021Z,4.05
2023-01-28T00:31:25.253Z,4.10
2023-01-28T00:31:38.343Z,4.09
2023-01-28T00:31:51.229Z,4.05
2023-01-28T00:32:04.474Z,4.05
2023-01-28T00:32:17.297Z,4.05
2023-01-28T00:32:30.505Z,4.08
2023-01-28T00:32:44.464Z,4.10
2023-01-28T00:32:57.778Z,4.05
2023-01-28T00:33:10.653Z,4.10
2023-01-28T00:33:23.821Z,4.13
2023-01-28T00:33:37.216Z,4.15
2023-01-28T00:33:50.265Z,4.12
2023-01-28T00:34:03.194Z,4.15
2023-01-28T00:34:16.104Z,4.16
2023-01-28T00:34:28.944Z,4.16
2023-01-28T00:34:41.786Z,4.15
2023-01-28T00:34:54.603Z,4.17
2023-01-28T00:35:08.064Z,4.19
2023-01-28T00:35:20.977Z,4.16
2023-01-28T00:35:33.797Z,4.15
2023-01-28T00:35:47.053Z,4.17
2023-01-28T00:36:01.094Z,4.14
2023-01-28T00:36:14.290Z,4.11
2023-01-28T00:36:27.471Z,4.14
2023-01-28T00:36:42.299Z,4.13
2023-01-28T00:36:57.917Z,4.12
2023-01-28T00:37:10.861Z,4.12
2023-01-28T00:37:23.705Z,4.14
2023-01-28T00:37:37.879Z,4.10
2023-01-28T00:37:50.815Z,4.12
2023-01-28T00:38:04.292Z,4.13
2023-01-28T00:38:17.101Z,4.14
2023-01-28T00:38:29.952Z,4.16
2023-01-28T00:38:42.845Z,4.17
2023-01-28T00:38:57.544Z,4.15
2023-01-28T00:39:11.971Z,4.16
2023-01-28T00:39:25.809Z,4.15
2023-01-28T00:39:38.663Z,4.12
2023-01-28T00:39:51.501Z,4.09
2023-01-28T00:40:04.596Z,4.07
2023-01-28T00:40:17.674Z,4.05
2023-01-28T00:40:31.069Z,4.05
2023-01-28T00:40:44.777Z,4.05
2023-01-28T00:41:06.491Z,4.02
2023-01-28T00:41:22.021Z,4.00
2023-01-28T00:41:34.693Z,3.96
2023-01-28T00:41:47.528Z,3.99
2023-01-28T00:42:00.435Z,4.09
2023-01-28T00:42:13.294Z,4.10
2023-01-28T00:42:26.112Z,4.08
2023-01-28T00:42:38.971Z,4.08
2023-01-28T00:42:51.801Z,4.10
2023-01-28T00:43:04.628Z,4.12
2023-01-28T00:43:17.474Z,4.12
2023-01-28T00:43:30.342Z,4.10
2023-01-28T00:43:43.336Z,4.11
2023-01-28T00:43:56.429Z,4.10
2023-01-28T00:44:09.540Z,4.13
2023-01-28T00:44:22.915Z,4.22
2023-01-28T00:44:36.448Z,4.21
2023-01-28T00:44:49.356Z,4.15
2023-01-28T00:45:02.205Z,4.10
2023-01-28T00:45:15.512Z,4.09
2023-01-28T00:45:28.564Z,4.10
2023-01-28T00:45:41.489Z,4.11
2023-01-28T00:45:54.694Z,4.05
2023-01-28T00:46:08.724Z,4.07
2023-01-28T00:46:22.033Z,4.07
2023-01-28T00:46:34.975Z,4.09
2023-01-28T00:46:47.827Z,4.08
2023-01-28T00:47:01.094Z,4.10
2023-01-28T00:47:13.931Z,4.18
2023-01-28T00:47:26.815Z,4.19
2023-01-28T00:47:39.698Z,4.17
2023-01-28T00:47:52.558Z,4.16
2023-01-28T00:48:06.789Z,4.14
2023-01-28T00:48:19.652Z,4.10
2023-01-28T00:48:32.526Z,4.10
2023-01-28T00:48:45.637Z,4.08
2023-01-28T00:48:58.567Z,4.06
2023-01-28T00:49:11.412Z,4.03
2023-01-28T00:49:24.281Z,4.02
2023-01-28T00:49:37.137Z,4.01
2023-01-28T00:49:50.004Z,4.04
2023-01-28T00:50:03.462Z,4.02
2023-01-28T00:50:16.578Z,4.00
2023-01-28T00:50:29.495Z,4.03
2023-01-28T00:50:42.366Z,4.00
2023-01-28T00:50:55.210Z,4.05
2023-01-28T00:51:08.367Z,4.05
2023-01-28T00:51:21.640Z,4.03
2023-01-28T00:51:34.626Z,4.09
2023-01-28T00:51:48.915Z,4.07
2023-01-28T00:52:01.784Z,4.05
2023-01-28T00:52:14.683Z,4.06
2023-01-28T00:52:27.800Z,4.07
2023-01-28T00:52:40.820Z,4.07
2023-01-28T00:52:53.663Z,4.14
2023-01-28T00:53:06.512Z,4.11
2023-01-28T00:53:19.367Z,4.12
2023-01-28T00:53:32.287Z,4.17
2023-01-28T00:53:45.191Z,4.15
2023-01-28T00:53:58.074Z,4.18
2023-01-28T00:54:13.317Z,4.19
2023-01-28T00:54:26.156Z,4.19
2023-01-28T00:54:38.970Z,4.22
2023-01-28T00:54:51.814Z,4.25
2023-01-28T00:55:05.055Z,4.24
2023-01-28T00:55:17.871Z,4.27
2023-01-28T00:55:30.839Z,4.26
2023-01-28T00:55:43.678Z,4.24
2023-01-28T00:55:56.530Z,4.24
2023-01-28T00:56:11.342Z,4.23
2023-01-28T00:56:24.176Z,4.27
2023-01-28T00:56:37.039Z,4.31
2023-01-28T00:56:49.901Z,4.23
2023-01-28T00:57:02.749Z,4.19
2023-01-28T00:57:15.597Z,4.22
2023-01-28T00:57:28.434Z,4.23
2023-01-28T00:57:41.257Z,4.24
2023-01-28T00:57:54.478Z,4.23
2023-01-28T00:58:07.319Z,4.22
2023-01-28T00:58:20.298Z,4.22
2023-01-28T00:58:33.729Z,4.21
2023-01-28T00:58:47.195Z,4.23
2023-01-28T00:59:00.105Z,4.21
2023-01-28T00:59:14.106Z,4.17
2023-01-28T00:59:27.935Z,4.17
2023-01-28T00:59:40.779Z,4.16
2023-01-28T00:59:53.635Z,4.22
2023-01-28T01:00:07.299Z,4.25
2023-01-28T01:00:21.869Z,4.22
2023-01-28T01:00:34.707Z,4.18
2023-01-28T01:00:47.551Z,4.20
2023-01-28T01:01:17.989Z,4.24
2023-01-28T01:01:31.005Z,4.29
2023-01-28T01:01:44.028Z,4.27
2023-01-28T01:02:12.320Z,4.22
2023-01-28T01:02:25.466Z,4.22
2023-01-28T01:02:40.323Z,4.23
2023-01-28T01:02:54.709Z,4.17
2023-01-28T01:03:07.562Z,4.12
2023-01-28T01:03:20.486Z,4.23
2023-01-28T01:03:33.336Z,4.20
2023-01-28T01:03:46.406Z,4.17
2023-01-28T01:04:05.097Z,4.16
2023-01-28T01:04:26.654Z,4.14
2023-01-28T01:04:40.501Z,4.08
2023-01-28T01:04:59.125Z,4.07
2023-01-28T01:05:12.426Z,4.09
2023-01-28T01:05:27.594Z,4.11
2023-01-28T01:05:40.478Z,4.09
2023-01-28T01:05:53.281Z,4.10
2023-01-28T01:06:06.474Z,4.12
2023-01-28T01:06:19.536Z,4.11
2023-01-28T01:06:35.283Z,4.12
2023-01-28T01:06:48.121Z,4.12
2023-01-28T01:07:00.970Z,4.15
2023-01-28T01:07:13.808Z,4.17
2023-01-28T01:07:43.643Z,4.13
2023-01-28T01:07:56.580Z,4.12
2023-01-28T01:08:09.456Z,4.17
2023-01-28T01:08:34.890Z,4.19
2023-01-28T01:08:50.108Z,4.21
2023-01-28T01:09:06.135Z,4.21
2023-01-28T01:09:20.345Z,4.21
2023-01-28T01:09:33.233Z,4.16
2023-01-28T01:09:46.101Z,4.14
2023-01-28T01:10:00.999Z,4.11
2023-01-28T01:10:16.279Z,4.06
2023-01-28T01:10:29.150Z,4.00
2023-01-28T01:10:41.983Z,4.02
2023-01-28T01:10:59.216Z,4.06
2023-01-28T01:11:12.010Z,4.05
2023-01-28T01:11:24.948Z,4.03
2023-01-28T01:11:38.826Z,4.01
2023-01-28T01:11:51.645Z,4.04
2023-01-28T01:12:04.557Z,4.03
2023-01-28T01:12:17.881Z,4.01
2023-01-28T01:12:30.755Z,4.12
2023-01-28T01:12:43.586Z,4.17
2023-01-28T01:12:58.133Z,4.21
2023-01-28T01:13:10.939Z,4.24
2023-01-28T01:13:23.782Z,4.28
2023-01-28T01:13:36.721Z,4.25
2023-01-28T01:13:57.004Z,4.23
2023-01-28T01:14:09.878Z,4.21
2023-01-28T01:14:22.559Z,4.23
2023-01-28T01:14:35.426Z,4.23
2023-01-28T01:14:48.268Z,4.24
2023-01-28T01:15:01.573Z,4.25
2023-01-28T01:15:14.796Z,4.25
2023-01-28T01:15:27.924Z,4.26
2023-01-28T01:15:41.021Z,4.27
2023-01-28T01:16:10.849Z,4.26
2023-01-28T01:16:25.052Z,4.32
2023-01-28T01:16:38.871Z,4.26
2023-01-28T01:16:54.533Z,4.31
2023-01-28T01:17:07.371Z,4.28
2023-01-28T01:17:21.207Z,4.26
2023-01-28T01:17:34.015Z,4.28
2023-01-28T01:17:48.199Z,4.28
2023-01-28T01:18:01.247Z,4.26
2023-01-28T01:18:14.090Z,4.25
2023-01-28T01:18:26.901Z,4.23
2023-01-28T01:18:42.088Z,4.27
2023-01-28T01:18:54.988Z,4.19
2023-01-28T01:19:09.459Z,4.17
2023-01-28T01:19:22.356Z,4.16
2023-01-28T01:19:35.197Z,4.14
2023-01-28T01:19:48.069Z,4.15
2023-01-28T01:20:05.132Z,4.09
2023-01-28T01:20:22.561Z,4.08
2023-01-28T01:20:40.067Z,4.07
2023-01-28T01:20:59.039Z,4.07
2023-01-28T01:21:13.713Z,4.01
2023-01-28T01:21:28.153Z,4.00
2023-01-28T01:21:40.980Z,3.99
2023-01-28T01:21:53.884Z,4.01
2023-01-28T01:22:06.726Z,4.04
2023-01-28T01:22:19.549Z,4.10
2023-01-28T01:22:38.022Z,4.16
2023-01-28T01:22:50.838Z,4.13
2023-01-28T01:23:03.689Z,4.12
2023-01-28T01:23:16.586Z,4.11
2023-01-28T01:23:30.185Z,4.09
2023-01-28T01:23:43.152Z,4.05
2023-01-28T01:23:56.092Z,4.02
2023-01-28T01:24:09.004Z,4.04
2023-01-28T01:24:21.891Z,4.04
2023-01-28T01:24:34.859Z,4.02
2023-01-28T01:24:48.250Z,4.00
2023-01-28T01:25:01.152Z,4.03
2023-01-28T01:25:14.984Z,4.04
2023-01-28T01:25:28.027Z,4.08
2023-01-28T01:25:40.856Z,4.07
2023-01-28T01:25:53.694Z,4.08
2023-01-28T01:26:06.734Z,4.12
2023-01-28T01:26:19.702Z,4.17
2023-01-28T01:26:32.551Z,4.11
2023-01-28T01:26:45.421Z,4.09
2023-01-28T01:26:58.262Z,4.13
2023-01-28T01:27:11.098Z,4.14
2023-01-28T01:27:23.991Z,4.19
2023-01-28T01:27:36.999Z,4.18
2023-01-28T01:27:50.252Z,4.20
2023-01-28T01:28:03.143Z,4.23
2023-01-28T01:28:16.283Z,4.27
2023-01-28T01:28:29.221Z,4.25
2023-01-28T01:28:42.084Z,4.27
2023-01-28T01:28:54.913Z,4.29
2023-01-28T01:29:09.866Z,4.30
2023-01-28T01:29:22.736Z,4.27
2023-01-28T01:29:35.636Z,4.32
2023-01-28T01:29:48.475Z,4.37
2023-01-28T01:30:01.302Z,4.32
2023-01-28T01:30:14.487Z,4.29
2023-01-28T01:30:27.622Z,4.28
2023-01-28T01:30:40.537Z,4.26
2023-01-28T01:31:00.343Z,4.27
2023-01-28T01:31:17.822Z,4.23
2023-01-28T01:31:30.698Z,4.20
2023-01-28T01:31:43.779Z,4.20
2023-01-28T01:31:56.681Z,4.23
2023-01-28T01:32:09.693Z,4.20
2023-01-28T01:32:22.872Z,4.18
2023-01-28T01:32:36.107Z,4.15
2023-01-28T01:32:49.451Z,4.15
2023-01-28T01:33:02.334Z,4.17
2023-01-28T01:33:15.479Z,4.17
2023-01-28T01:33:29.680Z,4.18
2023-01-28T01:33:42.789Z,4.17
2023-01-28T01:33:55.740Z,4.13
2023-01-28T01:34:09.339Z,4.12
2023-01-28T01:34:24.443Z,4.14
2023-01-28T01:34:37.317Z,4.09
2023-01-28T01:34:50.142Z,4.09
2023-01-28T01:35:03.577Z,4.07
2023-01-28T01:35:16.815Z,4.09
2023-01-28T01:35:30.161Z,4.05
2023-01-28T01:35:43.078Z,4.10
2023-01-28T01:35:56.488Z,4.10
2023-01-28T01:36:10.104Z,4.13
2023-01-28T01:36:23.763Z,4.16
2023-01-28T01:36:36.685Z,4.19
2023-01-28T01:36:49.585Z,4.19
2023-01-28T01:37:03.995Z,4.16
2023-01-28T01:37:16.820Z,4.17
2023-01-28T01:37:29.649Z,4.19
2023-01-28T01:37:44.575Z,4.20
2023-01-28T01:37:57.444Z,4.23
2023-01-28T01:38:11.097Z,4.19
2023-01-28T01:38:23.968Z,4.16
2023-01-28T01:38:37.166Z,4.18
2023-01-28T01:38:53.544Z,4.17
2023-01-28T01:39:06.369Z,4.18
2023-01-28T01:39:19.274Z,4.21
2023-01-28T01:39:32.157Z,4.21
2023-01-28T01:39:44.994Z,4.17
2023-01-28T01:39:57.890Z,4.14
2023-01-28T01:40:11.593Z,4.12
2023-01-28T01:40:24.438Z,4.15
2023-01-28T01:40:37.304Z,4.12
2023-01-28T01:40:50.593Z,4.10
2023-01-28T01:41:03.643Z,4.09
2023-01-28T01:41:32.673Z,4.07
2023-01-28T01:41:45.935Z,4.15
2023-01-28T01:41:58.774Z,4.17
2023-01-28T01:42:12.636Z,4.18
2023-01-28T01:42:25.985Z,4.12
2023-01-28T01:42:38.813Z,4.14
2023-01-28T01:42:51.649Z,4.15
2023-01-28T01:43:14.907Z,4.19
2023-01-28T01:43:47.213Z,4.19
2023-01-28T01:44:01.513Z,4.27
2023-01-28T01:44:59.647Z,4.30
2023-01-28T01:45:17.841Z,4.18
2023-01-28T01:45:30.964Z,4.21
2023-01-28T01:45:43.844Z,4.19
2023-01-28T01:45:59.481Z,4.20
2023-01-28T01:46:12.414Z,4.24
2023-01-28T01:46:33.883Z,4.23
2023-01-28T01:46:49.392Z,4.13
2023-01-28T01:47:02.253Z,4.14
2023-01-28T01:47:15.099Z,4.18
2023-01-28T01:47:39.798Z,4.20
2023-01-28T01:48:00.010Z,4.15
2023-01-28T01:48:18.960Z,4.15
2023-01-28T01:48:33.687Z,4.13
2023-01-28T01:48:46.761Z,4.15
2023-01-28T01:49:21.938Z,4.19
2023-01-28T01:49:34.762Z,4.11
2023-01-28T01:49:47.663Z,4.14
2023-01-28T01:50:02.947Z,4.22
2023-01-28T01:50:24.707Z,4.18
2023-01-28T01:50:42.962Z,4.15
2023-01-28T01:50:58.387Z,4.15
2023-01-28T01:51:19.878Z,4.16
2023-01-28T01:51:33.267Z,4.17
2023-01-28T01:51:46.959Z,4.15
2023-01-28T01:52:06.346Z,4.11
2023-01-28T01:52:23.175Z,4.14
2023-01-28T01:52:36.147Z,4.14
2023-01-28T01:52:50.017Z,4.09
2023-01-28T01:53:06.717Z,4.19
2023-01-28T01:53:19.564Z,4.18
2023-01-28T01:53:32.455Z,4.18
2023-01-28T01:53:46.906Z,4.15
2023-01-28T01:53:59.736Z,4.10
2023-01-28T01:54:12.591Z,4.15
2023-01-28T01:54:25.826Z,4.12
2023-01-28T01:54:39.101Z,4.09
2023-01-28T01:54:53.375Z,4.11
2023-01-28T01:55:09.457Z,4.10
2023-01-28T01:55:23.974Z,4.14
2023-01-28T01:55:38.245Z,4.17
2023-01-28T01:55:51.930Z,4.15
2023-01-28T01:56:05.572Z,4.11
2023-01-28T01:56:19.619Z,4.09
2023-01-28T01:56:35.403Z,4.16
2023-01-28T01:56:48.662Z,4.17
2023-01-28T01:57:01.482Z,4.18
2023-01-28T01:57:16.277Z,4.17
2023-01-28T01:57:31.179Z,4.19
2023-01-28T01:57:44.041Z,4.17
2023-01-28T01:57:57.359Z,4.21
2023-01-28T01:58:13.616Z,4.24
2023-01-28T01:58:28.963Z,4.23
2023-01-28T01:58:42.827Z,4.23
2023-01-28T01:58:55.680Z,4.27
2023-01-28T01:59:11.578Z,4.25
2023-01-28T01:59:29.972Z,4.24
2023-01-28T01:59:42.882Z,4.23
2023-01-28T01:59:55.771Z,4.21
2023-01-28T02:00:09.431Z,4.25
2023-01-28T02:00:22.330Z,4.21
2023-01-28T02:00:35.189Z,4.20
2023-01-28T02:00:48.030Z,4.19
2023-01-28T02:01:00.886Z,4.18
2023-01-28T02:01:13.786Z,4.15
2023-01-28T02:01:29.766Z,4.12
2023-01-28T02:01:42.962Z,4.17
2023-01-28T02:01:55.990Z,4.18
2023-01-28T02:02:08.947Z,4.22
2023-01-28T02:02:21.871Z,4.15
2023-01-28T02:02:40.365Z,4.21
2023-01-28T02:02:53.282Z,4.17
2023-01-28T02:03:06.237Z,4.17
2023-01-28T02:03:21.701Z,4.14
2023-01-28T02:03:44.295Z,4.08
2023-01-28T02:04:05.886Z,4.01
2023-01-28T02:04:37.477Z,4.05
2023-01-28T02:04:50.385Z,4.09
2023-01-28T02:05:03.717Z,4.06
2023-01-28T02:05:18.909Z,4.07
2023-01-28T02:05:31.742Z,4.07
2023-01-28T02:05:44.647Z,4.02
2023-01-28T02:05:57.519Z,4.04
2023-01-28T02:06:10.401Z,4.15
2023-01-28T02:06:23.453Z,4.11
2023-01-28T02:06:36.706Z,4.17
2023-01-28T02:06:49.583Z,4.19
2023-01-28T02:07:02.525Z,4.19
2023-01-28T02:07:16.230Z,4.20
2023-01-28T02:07:29.110Z,4.17
2023-01-28T02:07:42.102Z,4.13
2023-01-28T02:08:16.607Z,4.10
2023-01-28T02:08:29.473Z,4.14
2023-01-28T02:08:42.352Z,4.10
2023-01-28T02:08:55.928Z,4.15
2023-01-28T02:09:25.204Z,4.12
2023-01-28T02:09:38.986Z,4.06
2023-01-28T02:09:51.819Z,4.08
2023-01-28T02:10:05.030Z,4.11
2023-01-28T02:10:17.842Z,4.09
2023-01-28T02:10:30.683Z,4.06
2023-01-28T02:10:43.965Z,4.03
2023-01-28T02:11:00.992Z,4.02
2023-01-28T02:11:13.829Z,4.02
2023-01-28T02:11:28.542Z,4.06
2023-01-28T02:11:41.405Z,4.08
2023-01-28T02:11:56.242Z,4.05
2023-01-28T02:12:10.352Z,4.10
2023-01-28T02:12:37.415Z,4.12
2023-01-28T02:12:53.516Z,4.06
2023-01-28T02:13:06.384Z,4.04
2023-01-28T02:13:19.974Z,4.04
2023-01-28T02:13:37.565Z,4.05
2023-01-28T02:13:51.383Z,4.14
2023-01-28T02:14:04.432Z,4.07
2023-01-28T02:14:30.705Z,4.02
2023-01-28T02:14:50.101Z,4.04
2023-01-28T02:15:11.038Z,4.05
2023-01-28T02:15:24.417Z,4.01
2023-01-28T02:15:37.241Z,4.04
2023-01-28T02:15:50.446Z,4.03
2023-01-28T02:16:03.440Z,4.01
2023-01-28T02:16:16.337Z,4.05
2023-01-28T02:16:29.372Z,4.07
2023-01-28T02:16:42.260Z,4.08
2023-01-28T02:16:55.163Z,4.08
2023-01-28T02:17:08.118Z,4.07
2023-01-28T02:17:20.989Z,4.09
2023-01-28T02:17:33.866Z,4.14
2023-01-28T02:17:47.097Z,4.17
2023-01-28T02:17:59.954Z,4.15
2023-01-28T02:18:12.813Z,4.10
2023-01-28T02:18:25.787Z,4.14
2023-01-28T02:18:38.704Z,4.14
2023-01-28T02:18:51.549Z,4.21
2023-01-28T02:19:04.395Z,4.18
2023-01-28T02:19:17.545Z,4.18
2023-01-28T02:19:40.465Z,4.15
2023-01-28T02:20:04.673Z,4.16
2023-01-28T02:20:22.333Z,4.17
2023-01-28T02:20:59.630Z,4.19
2023-01-28T02:21:34.032Z,4.14
2023-01-28T02:22:05.957Z,4.17
2023-01-28T02:23:02.638Z,4.11
2023-01-28T02:23:23.956Z,4.10
2023-01-28T02:23:44.865Z,4.14
2023-01-28T02:24:15.546Z,4.09
2023-01-28T02:25:16.445Z,4.04
2023-01-28T02:26:02.452Z,4.10
2023-01-28T02:26:32.338Z,4.15
2023-01-28T02:26:47.770Z,4.08
2023-01-28T02:27:12.268Z,4.08
2023-01-28T02:27:50.878Z,4.11
2023-01-28T02:28:33.432Z,4.12
2023-01-28T02:28:52.859Z,4.02
2023-01-28T02:29:31.181Z,4.02
2023-01-28T02:29:47.580Z,3.97
2023-01-28T02:30:16.471Z,4.00
2023-01-28T02:30:31.223Z,4.02
2023-01-28T02:30:54.060Z,4.03
2023-01-28T02:31:19.222Z,4.02
2023-01-28T02:31:44.933Z,4.03
2023-01-28T02:32:14.792Z,4.02
2023-01-28T02:33:08.704Z,4.02
2023-01-28T02:33:40.827Z,4.01
2023-01-28T02:33:56.363Z,3.99
2023-01-28T02:34:33.624Z,4.02
2023-01-28T02:35:11.333Z,4.02
2023-01-28T02:35:47.273Z,4.08
2023-01-28T02:36:02.857Z,4.06
2023-01-28T02:36:21.581Z,4.02
2023-01-28T02:36:46.147Z,4.05
2023-01-28T02:37:04.861Z,4.08
2023-01-28T02:37:20.144Z,4.17
2023-01-28T02:37:55.855Z,4.17
2023-01-28T02:38:11.715Z,4.16
2023-01-28T02:38:31.404Z,4.15
2023-01-28T02:38:47.372Z,4.16
2023-01-28T02:39:03.518Z,4.12
2023-01-28T02:39:18.950Z,4.10
2023-01-28T02:39:35.586Z,4.08
2023-01-28T02:40:03.980Z,4.10
2023-01-28T02:40:56.008Z,4.10
2023-01-28T02:41:11.674Z,4.08
2023-01-28T02:41:28.997Z,4.15
2023-01-28T02:41:46.477Z,4.11
2023-01-28T02:42:11.140Z,4.04
2023-01-28T02:42:27.968Z,4.08
2023-01-28T02:42:40.834Z,4.14
2023-01-28T02:42:53.728Z,4.07
2023-01-28T02:43:06.755Z,4.06
2023-01-28T02:43:19.556Z,4.03
2023-01-28T02:43:39.700Z,4.02
2023-01-28T02:43:52.568Z,4.08
2023-01-28T02:44:05.506Z,4.15
2023-01-28T02:44:18.360Z,4.15
2023-01-28T02:44:31.403Z,4.15
2023-01-28T02:44:44.250Z,4.20
2023-01-28T02:44:57.131Z,4.17
2023-01-28T02:45:46.807Z,4.17
2023-01-28T02:46:18.843Z,4.15
2023-01-28T02:46:50.125Z,4.11
2023-01-28T02:47:21.874Z,4.15
2023-01-28T02:47:53.579Z,4.05
2023-01-28T02:48:06.446Z,4.09
2023-01-28T02:48:20.592Z,4.06
2023-01-28T02:48:33.578Z,4.10
2023-01-28T02:48:47.131Z,4.18
2023-01-28T02:48:59.986Z,4.09
2023-01-28T02:49:22.750Z,4.10
2023-01-28T02:49:48.914Z,4.09
2023-01-28T02:50:12.557Z,4.10
2023-01-28T02:50:42.543Z,4.10
2023-01-28T02:51:19.074Z,4.05
2023-01-28T02:51:34.818Z,4.10
2023-01-28T02:53:04.942Z,4.10
2023-01-28T03:01:14.258Z,4.51
2023-01-28T03:01:48.051Z,4.51
2023-01-28T03:03:05.501Z,4.02
2023-01-28T03:04:13.285Z,4.01
2023-01-28T03:04:49.669Z,4.04
2023-01-28T03:05:29.706Z,4.05
2023-01-28T03:06:04.283Z,3.98
2023-01-28T03:06:45.763Z,4.03
2023-01-28T03:07:18.786Z,4.05
2023-01-28T03:07:51.509Z,4.05
2023-01-28T03:08:24.825Z,4.03
2023-01-28T03:09:23.050Z,3.97
2023-01-28T03:09:58.918Z,3.97
2023-01-28T03:10:31.594Z,3.97
2023-01-28T03:11:41.750Z,3.99
2023-01-28T03:12:51.892Z,4.07
2023-01-28T03:14:02.172Z,4.01
2023-01-28T03:15:24.478Z,3.93
2023-01-28T03:16:15.842Z,3.85
2023-01-28T03:17:28.458Z,3.88
2023-01-28T03:18:44.019Z,3.95
2023-01-28T03:19:35.450Z,3.96
2023-01-28T03:20:47.421Z,3.97
2023-01-28T03:22:01.448Z,4.01
2023-01-28T03:23:12.339Z,3.94
2023-01-28T03:24:24.592Z,3.91
2023-01-28T03:25:34.157Z,3.90
2023-01-28T03:26:44.292Z,3.87
2023-01-28T03:28:09.049Z,3.92
2023-01-28T03:29:01.447Z,3.89
2023-01-28T03:30:12.657Z,3.98
2023-01-28T03:31:21.498Z,3.93
2023-01-28T03:32:31.618Z,3.86
2023-01-28T03:33:23.171Z,3.92
2023-01-28T03:34:32.843Z,3.93
2023-01-28T03:35:24.382Z,3.88
2023-01-28T03:36:15.838Z,3.90
2023-01-28T03:36:51.541Z,3.88
2023-01-28T03:37:24.326Z,3.84
2023-01-28T03:38:21.031Z,3.85
2023-01-28T03:38:53.763Z,3.87
2023-01-28T03:39:27.626Z,3.88
2023-01-28T03:40:18.970Z,3.86
2023-01-28T03:41:03.031Z,3.88
2023-01-28T03:41:35.779Z,3.95
2023-01-28T03:42:10.604Z,4.00
2023-01-28T03:42:43.345Z,3.98
2023-01-28T03:43:16.065Z,3.91
2023-01-28T03:43:49.073Z,3.96
2023-01-28T03:44:20.303Z,3.98
2023-01-28T03:44:56.484Z,3.97
2023-01-28T03:45:29.354Z,3.98
2023-01-28T03:46:02.600Z,3.95
2023-01-28T03:46:38.073Z,3.96
2023-01-28T03:47:29.989Z,4.02
2023-01-28T03:48:23.245Z,3.96
2023-01-28T03:48:56.608Z,4.00
2023-01-28T03:49:29.363Z,4.03
2023-01-28T03:50:02.372Z,4.04
2023-01-28T03:50:35.115Z,4.00
2023-01-28T03:51:07.878Z,4.03
2023-01-28T03:51:58.983Z,3.99
2023-01-28T03:52:32.339Z,4.00
2023-01-28T03:53:16.359Z,4.00
2023-01-28T03:54:06.049Z,3.97
2023-01-28T03:54:39.050Z,3.98
2023-01-28T03:55:15.080Z,3.97
2023-01-28T03:55:49.274Z,4.00
2023-01-28T03:56:24.550Z,4.01
2023-01-28T03:57:28.108Z,3.99
2023-01-28T03:58:00.826Z,4.01
2023-01-28T03:58:52.025Z,4.03
2023-01-28T03:59:43.744Z,4.05
2023-01-28T04:00:38.030Z,4.15
2023-01-28T04:01:10.873Z,4.00
2023-01-28T04:01:44.519Z,4.03
2023-01-28T04:02:50.462Z,4.06
2023-01-28T04:03:55.431Z,4.05
2023-01-28T04:04:59.040Z,4.05
2023-01-28T04:05:31.821Z,4.05
2023-01-28T04:06:06.364Z,4.07
2023-01-28T04:06:39.118Z,4.01
2023-01-28T04:07:14.415Z,4.00
2023-01-28T04:07:47.146Z,4.06
2023-01-28T04:08:01.093Z,3.97
2023-01-28T04:08:35.856Z,3.98
2023-01-28T04:09:26.979Z,3.95
2023-01-28T04:10:18.709Z,4.00
2023-01-28T04:11:16.063Z,4.11
2023-01-28T04:11:49.036Z,4.12
2023-01-28T04:12:23.659Z,4.01
2023-01-28T04:12:56.756Z,3.92
2023-01-28T04:13:29.513Z,3.99
2023-01-28T04:14:02.275Z,4.04
2023-01-28T04:14:35.264Z,3.98
2023-01-28T04:15:15.819Z,3.93
2023-01-28T04:15:48.538Z,3.97
2023-01-28T04:16:21.495Z,3.96
2023-01-28T04:16:56.241Z,4.01
2023-01-28T04:17:28.984Z,4.00
2023-01-28T04:18:03.748Z,3.91
2023-01-28T04:18:55.371Z,3.88
2023-01-28T04:19:46.734Z,3.93
2023-01-28T04:20:19.952Z,3.94
2023-01-28T04:20:52.683Z,3.99
2023-01-28T04:21:25.418Z,4.01
2023-01-28T04:21:58.325Z,3.94
2023-01-28T04:22:31.048Z,3.95
2023-01-28T04:23:04.313Z,3.94
2023-01-28T04:23:17.203Z,3.98
2023-01-28T04:23:51.972Z,3.96
2023-01-28T04:24:24.744Z,4.00
2023-01-28T04:24:57.441Z,4.01
2023-01-28T04:25:10.640Z,4.07
2023-01-28T04:25:43.401Z,4.04
2023-01-28T04:26:16.130Z,4.04
2023-01-28T04:26:28.994Z,4.05
2023-01-28T04:27:01.772Z,4.02
2023-01-28T04:27:34.938Z,3.97
2023-01-28T04:28:07.639Z,3.94
2023-01-28T04:28:40.390Z,3.91
2023-01-28T04:29:13.143Z,4.02
2023-01-28T04:30:04.348Z,4.00
2023-01-28T04:30:37.155Z,3.94
2023-01-28T04:31:10.019Z,3.96
2023-01-28T04:31:42.710Z,3.90
2023-01-28T04:32:15.421Z,3.98
2023-01-28T04:32:48.197Z,3.93
2023-01-28T04:33:20.936Z,3.92